Time;durP1;ratioP1;P1;durP2;ratioP2;P2;SDS_P1;SDS_P2;PMS_P1;PMS_P2;Temp;Humidity;BMP_temperature;BMP_pressure;BME280_temperature;BME280_humidity;BME280_pressure;Samples;Min_cycle;Max_cycle;Signal;HPM_P1;HPM_P2
2024/01/10 00:01:18;;;;;;;8.80;5.70;;;-1.40;91.20;;;;;;5017348;28;21565;-73
2024/01/10 00:03:44;;;;;;;7.07;5.00;;;-1.40;91.10;;;;;;5015776;28;20468;-73
2024/01/10 00:06:12;;;;;;;9.33;6.10;;;-1.70;90.80;;;;;;5034028;28;20187;-73
2024/01/10 00:08:38;;;;;;;8.90;5.63;;;-1.60;90.90;;;;;;5032707;28;20399;-74
2024/01/10 00:11:04;;;;;;;7.30;5.73;;;-1.60;90.90;;;;;;5016277;28;20415;-73
2024/01/10 00:13:32;;;;;;;9.80;5.67;;;-1.60;91.00;;;;;;5015661;28;20224;-73
2024/01/10 00:15:58;;;;;;;7.30;5.20;;;-1.80;91.20;;;;;;5033364;28;20213;-73
2024/01/10 00:18:25;;;;;;;6.87;5.27;;;-1.80;90.90;;;;;;5000988;28;20810;-73
2024/01/10 00:20:53;;;;;;;7.63;5.40;;;-1.80;90.90;;;;;;5033507;28;20425;-73
2024/01/10 00:23:20;;;;;;;10.20;6.10;;;-1.80;90.90;;;;;;5034079;28;20442;-73
2024/01/10 00:25:46;;;;;;;7.07;5.63;;;-1.60;90.80;;;;;;5033861;28;20460;-74
2024/01/10 00:28:12;;;;;;;8.80;4.77;;;-1.60;90.80;;;;;;5033643;28;20453;-73
2024/01/10 00:30:38;;;;;;;9.57;6.03;;;-1.70;90.70;;;;;;5016379;28;20452;-73
2024/01/10 00:33:04;;;;;;;8.70;5.57;;;-1.90;90.70;;;;;;5015729;28;20193;-73
2024/01/10 00:35:31;;;;;;;7.20;5.13;;;-1.70;90.80;;;;;;5033851;28;20837;-73
2024/01/10 00:37:57;;;;;;;8.50;5.93;;;-1.90;90.60;;;;;;5034126;28;20492;-74
2024/01/10 00:40:23;;;;;;;8.30;5.37;;;-1.60;90.70;;;;;;5033450;28;20421;-74
2024/01/10 00:42:49;;;;;;;8.60;5.97;;;-1.60;90.60;;;;;;5034171;28;20190;-73
2024/01/10 00:45:16;;;;;;;10.33;5.47;;;-1.80;90.60;;;;;;5017066;28;21017;-73
2024/01/10 00:47:41;;;;;;;8.33;5.07;;;-1.70;90.60;;;;;;5015735;28;20592;-73
2024/01/10 00:50:08;;;;;;;10.90;5.33;;;-1.60;90.70;;;;;;5033688;28;20527;-73
2024/01/10 00:52:33;;;;;;;7.10;5.03;;;-1.60;90.50;;;;;;5014061;28;20640;-74
2024/01/10 00:54:59;;;;;;;9.90;5.20;;;-1.90;90.00;;;;;;5033787;28;20404;-73
2024/01/10 00:57:25;;;;;;;10.07;6.10;;;-1.90;90.20;;;;;;5032933;28;20213;-74
2024/01/10 00:59:51;;;;;;;11.10;6.47;;;-1.90;90.50;;;;;;5033678;28;20190;-73
2024/01/10 01:02:16;;;;;;;8.37;5.40;;;-1.80;90.60;;;;;;5033606;28;20413;-73
2024/01/10 01:04:42;;;;;;;10.07;5.20;;;-1.80;90.60;;;;;;5015812;28;20192;-73
2024/01/10 01:07:08;;;;;;;9.37;5.90;;;-1.90;90.40;;;;;;5033951;28;20186;-74
2024/01/10 01:09:34;;;;;;;8.40;5.17;;;-1.70;90.60;;;;;;5033084;28;20197;-73
2024/01/10 01:12:00;;;;;;;8.20;4.87;;;-1.80;90.50;;;;;;5032173;28;20185;-73
2024/01/10 01:14:26;;;;;;;9.90;6.03;;;-1.80;90.40;;;;;;5033331;28;20424;-73
2024/01/10 01:16:51;;;;;;;9.10;5.77;;;-1.70;90.40;;;;;;5014755;28;20201;-73
2024/01/10 01:19:17;;;;;;;6.50;4.80;;;-1.90;90.30;;;;;;5033211;28;21190;-74
2024/01/10 01:21:43;;;;;;;8.10;5.17;;;-1.70;90.40;;;;;;5033036;28;20927;-74
2024/01/10 01:24:09;;;;;;;8.60;5.70;;;-1.70;90.40;;;;;;5032882;28;20431;-74
2024/01/10 01:26:34;;;;;;;6.57;5.33;;;-1.60;90.30;;;;;;5032745;28;20213;-74
2024/01/10 01:29:00;;;;;;;7.73;5.20;;;-1.90;90.40;;;;;;5033877;28;20194;-73
2024/01/10 01:31:26;;;;;;;8.20;5.40;;;-1.90;90.50;;;;;;5015337;28;20600;-74
2024/01/10 01:33:52;;;;;;;8.60;5.50;;;-2.00;90.30;;;;;;5033758;28;20189;-74
2024/01/10 01:36:18;;;;;;;10.43;5.80;;;-1.90;90.40;;;;;;5033429;28;20185;-73
2024/01/10 01:38:44;;;;;;;8.57;6.40;;;-1.70;90.70;;;;;;5033188;28;20782;-74
2024/01/10 01:41:09;;;;;;;10.33;5.03;;;-1.90;90.10;;;;;;5034058;28;20495;-74
2024/01/10 01:43:35;;;;;;;11.37;5.87;;;-1.80;90.20;;;;;;5033074;28;20888;-73
2024/01/10 01:46:03;;;;;;;8.80;5.90;;;-1.90;89.90;;;;;;5015998;28;20524;-74
2024/01/10 01:48:29;;;;;;;9.33;5.77;;;-1.90;90.00;;;;;;5015969;28;20190;-73
2024/01/10 01:51:02;;;;;;;6.50;5.10;;;-1.90;90.10;;;;;;5033146;28;20417;-74
2024/01/10 01:53:31;;;;;;;9.10;5.73;;;-1.80;90.20;;;;;;5015078;28;20428;-74
2024/01/10 01:56:00;;;;;;;13.10;6.20;;;-1.80;90.20;;;;;;5016358;28;21290;-74
2024/01/10 01:58:26;;;;;;;11.53;5.60;;;-1.80;90.20;;;;;;5032106;28;21035;-74
2024/01/10 02:00:52;;;;;;;9.33;5.93;;;-1.90;90.10;;;;;;5033203;28;20441;-74
2024/01/10 02:03:18;;;;;;;8.73;5.43;;;-1.80;90.20;;;;;;5015996;28;21078;-73
2024/01/10 02:05:45;;;;;;;9.50;5.50;;;-1.80;90.40;;;;;;5032549;28;20400;-74
2024/01/10 02:08:11;;;;;;;10.30;5.80;;;-1.90;90.30;;;;;;5033579;28;20182;-74
2024/01/10 02:10:37;;;;;;;8.37;5.37;;;-1.80;90.50;;;;;;4982438;28;20491;-74
2024/01/10 02:13:03;;;;;;;9.27;5.80;;;-1.80;90.50;;;;;;5033063;28;20190;-73
2024/01/10 02:15:29;;;;;;;8.97;5.57;;;-2.00;90.60;;;;;;5032407;28;20186;-73
2024/01/10 02:17:54;;;;;;;8.43;5.77;;;-1.80;90.80;;;;;;5032396;28;20489;-74
2024/01/10 02:20:21;;;;;;;11.07;7.10;;;-1.90;91.00;;;;;;5032732;28;21238;-74
2024/01/10 02:22:47;;;;;;;7.90;5.43;;;-2.00;91.10;;;;;;5014813;28;20196;-74
2024/01/10 02:25:13;;;;;;;8.10;5.40;;;-2.00;91.30;;;;;;5032804;28;20870;-73
2024/01/10 02:27:40;;;;;;;9.50;5.60;;;-2.20;91.50;;;;;;5032961;28;20442;-74
2024/01/10 02:30:08;;;;;;;9.40;6.70;;;-2.20;91.50;;;;;;5032532;28;20439;-74
2024/01/10 02:32:34;;;;;;;8.23;5.90;;;-2.10;91.70;;;;;;5031491;28;20439;-74
2024/01/10 02:35:00;;;;;;;11.30;5.97;;;-2.10;91.90;;;;;;5032042;28;20815;-74
2024/01/10 02:37:26;;;;;;;10.83;6.90;;;-2.20;92.10;;;;;;5036332;28;20437;-74
2024/01/10 02:39:52;;;;;;;9.70;5.73;;;-2.30;92.10;;;;;;5019033;28;20407;-74
2024/01/10 02:42:17;;;;;;;8.30;5.70;;;-2.10;92.40;;;;;;5018890;28;20254;-74
2024/01/10 02:44:43;;;;;;;7.63;5.90;;;-2.40;92.40;;;;;;5035868;28;20277;-74
2024/01/10 02:47:10;;;;;;;10.43;5.77;;;-2.30;92.60;;;;;;5036756;28;20221;-74
2024/01/10 02:49:36;;;;;;;10.33;5.93;;;-2.20;92.80;;;;;;5035374;28;20472;-74
2024/01/10 02:52:02;;;;;;;10.23;6.40;;;-2.20;92.90;;;;;;5036488;28;20440;-74
2024/01/10 02:54:27;;;;;;;10.90;6.37;;;-2.30;92.80;;;;;;5035938;28;20190;-74
2024/01/10 02:56:53;;;;;;;13.17;6.63;;;-2.30;92.90;;;;;;5035845;28;20195;-74
2024/01/10 02:59:19;;;;;;;9.93;6.53;;;-2.40;93.00;;;;;;5036630;28;20269;-74
2024/01/10 03:01:44;;;;;;;10.30;6.57;;;-2.20;93.10;;;;;;5036271;28;20193;-74
2024/01/10 03:04:10;;;;;;;9.70;6.70;;;-2.30;93.10;;;;;;5036901;28;20191;-74
2024/01/10 03:06:36;;;;;;;7.43;5.40;;;-2.30;93.30;;;;;;5017582;28;20265;-73
2024/01/10 03:09:03;;;;;;;8.30;6.10;;;-2.30;93.50;;;;;;5018822;28;20641;-74
2024/01/10 03:11:28;;;;;;;9.40;5.83;;;-2.40;93.60;;;;;;5035830;28;20186;-74
2024/01/10 03:14:07;;;;;;;10.07;6.93;;;-2.50;94.00;;;;;;5018077;28;20415;-74
2024/01/10 03:16:33;;;;;;;10.00;6.20;;;-2.60;94.10;;;;;;5035000;28;20472;-74
2024/01/10 03:18:59;;;;;;;8.50;6.50;;;-2.50;94.30;;;;;;5036018;28;20450;-74
2024/01/10 03:21:26;;;;;;;9.73;6.00;;;-2.50;94.50;;;;;;5017104;28;20996;-74
2024/01/10 03:23:56;;;;;;;11.47;7.20;;;-2.70;94.50;;;;;;5017036;28;20933;-74
2024/01/10 03:26:22;;;;;;;8.00;6.20;;;-2.60;94.70;;;;;;5034797;28;20408;-73
2024/01/10 03:28:48;;;;;;;10.13;5.60;;;-2.60;94.60;;;;;;5036344;28;20908;-74
2024/01/10 03:31:14;;;;;;;10.23;6.10;;;-2.50;94.80;;;;;;5036402;28;20471;-74
2024/01/10 03:33:39;;;;;;;8.70;5.70;;;-2.60;94.80;;;;;;5036296;28;20463;-74
2024/01/10 03:36:06;;;;;;;11.70;6.63;;;-2.50;94.90;;;;;;5018177;28;20407;-74
2024/01/10 03:38:32;;;;;;;12.30;7.30;;;-2.50;94.90;;;;;;5017393;28;21004;-74
2024/01/10 03:40:57;;;;;;;10.43;6.43;;;-2.60;94.90;;;;;;5036061;28;20498;-73
2024/01/10 03:43:23;;;;;;;10.57;6.40;;;-2.60;94.90;;;;;;5035839;28;20928;-73
2024/01/10 03:45:49;;;;;;;11.90;6.27;;;-2.70;95.00;;;;;;5036164;28;20272;-73
2024/01/10 03:48:14;;;;;;;8.10;5.37;;;-2.60;95.10;;;;;;5035976;28;20285;-74
2024/01/10 03:50:40;;;;;;;13.97;7.13;;;-2.70;95.10;;;;;;5036457;28;20210;-74
2024/01/10 03:53:06;;;;;;;10.10;7.00;;;-2.60;95.30;;;;;;5034839;28;20270;-74
2024/01/10 03:55:32;;;;;;;12.03;6.43;;;-2.50;95.30;;;;;;5017951;28;20552;-74
2024/01/10 03:57:57;;;;;;;10.63;6.10;;;-2.70;95.30;;;;;;5017650;28;20464;-74
2024/01/10 04:00:24;;;;;;;9.00;5.80;;;-2.60;95.40;;;;;;5035457;28;20190;-73
2024/01/10 04:02:50;;;;;;;9.63;6.40;;;-2.70;95.50;;;;;;5035668;28;20190;-73
2024/01/10 04:05:16;;;;;;;12.07;6.90;;;-2.60;95.70;;;;;;5034880;28;20421;-74
2024/01/10 04:07:43;;;;;;;8.30;5.90;;;-2.80;95.70;;;;;;5035888;28;20190;-73
2024/01/10 04:10:13;;;;;;;8.43;5.70;;;-2.60;95.90;;;;;;5035358;28;20225;-74
2024/01/10 04:12:49;;;;;;;9.30;6.17;;;-2.60;96.00;;;;;;5035519;28;20399;-74
2024/01/10 04:15:15;;;;;;;10.60;7.43;;;-2.70;96.10;;;;;;5034610;28;20406;-74
2024/01/10 04:17:40;;;;;;;12.23;6.63;;;-2.70;96.20;;;;;;5035813;28;20480;-74
2024/01/10 04:20:07;;;;;;;10.73;6.17;;;-2.90;96.20;;;;;;5034184;28;20264;-74
2024/01/10 04:22:32;;;;;;;8.33;6.60;;;-2.90;96.30;;;;;;5035186;28;20186;-73
2024/01/10 04:24:59;;;;;;;11.57;6.53;;;-2.70;96.50;;;;;;5035267;28;20428;-74
2024/01/10 04:27:25;;;;;;;11.97;5.97;;;-2.80;96.30;;;;;;5034462;28;20182;-73
2024/01/10 04:29:51;;;;;;;7.87;5.43;;;-2.60;96.40;;;;;;5033284;28;20400;-73
2024/01/10 04:32:17;;;;;;;9.87;6.47;;;-2.70;96.50;;;;;;5015893;28;20457;-74
2024/01/10 04:34:42;;;;;;;8.53;6.50;;;-2.90;96.70;;;;;;5035389;28;20209;-74
2024/01/10 04:37:08;;;;;;;8.57;6.00;;;-2.80;96.90;;;;;;5000443;28;20269;-74
2024/01/10 04:39:34;;;;;;;10.17;6.00;;;-2.90;96.90;;;;;;5016993;28;20205;-74
2024/01/10 04:42:00;;;;;;;10.83;6.70;;;-2.80;97.00;;;;;;5017034;28;20806;-74
2024/01/10 04:44:25;;;;;;;8.20;5.80;;;-2.90;97.00;;;;;;5034145;28;20416;-73
2024/01/10 04:46:51;;;;;;;10.23;7.20;;;-3.00;96.90;;;;;;5033546;28;20186;-74
2024/01/10 04:49:17;;;;;;;10.50;6.23;;;-2.90;97.00;;;;;;5033709;28;20652;-74
2024/01/10 04:51:43;;;;;;;11.23;6.60;;;-2.90;97.20;;;;;;5034758;28;20222;-74
2024/01/10 04:54:09;;;;;;;10.50;6.30;;;-2.90;97.20;;;;;;5033957;28;20190;-74
2024/01/10 04:56:38;;;;;;;12.33;6.80;;;-3.00;97.30;;;;;;5034256;28;20456;-74
2024/01/10 04:59:04;;;;;;;11.30;6.87;;;-2.80;97.50;;;;;;5015666;28;20447;-74
2024/01/10 05:01:30;;;;;;;10.57;6.20;;;-2.80;97.50;;;;;;5034559;28;20726;-74
2024/01/10 05:03:56;;;;;;;11.03;7.17;;;-3.00;97.40;;;;;;5033902;28;20400;-74
2024/01/10 05:06:22;;;;;;;8.90;6.00;;;-3.00;97.50;;;;;;5032596;28;20411;-75
2024/01/10 05:08:47;;;;;;;9.77;7.63;;;-2.90;97.60;;;;;;4984744;28;20189;-74
2024/01/10 05:11:15;;;;;;;10.70;6.90;;;-3.00;97.50;;;;;;5033440;28;20218;-74
2024/01/10 05:13:40;;;;;;;8.70;6.13;;;-2.90;97.60;;;;;;5017205;28;20678;-73
2024/01/10 05:16:06;;;;;;;10.67;6.67;;;-3.00;97.70;;;;;;5032882;28;20437;-73
2024/01/10 05:18:32;;;;;;;9.17;6.60;;;-2.90;97.90;;;;;;5034521;28;20210;-74
2024/01/10 05:20:59;;;;;;;10.70;6.90;;;-3.00;97.90;;;;;;5016263;28;21080;-74
2024/01/10 05:23:24;;;;;;;11.37;6.50;;;-2.90;98.00;;;;;;5033482;28;20425;-73
2024/01/10 05:25:50;;;;;;;9.73;6.93;;;-3.20;97.90;;;;;;5033712;28;20431;-74
2024/01/10 05:28:16;;;;;;;10.37;6.53;;;-3.10;98.10;;;;;;5015488;28;20257;-74
2024/01/10 05:30:44;;;;;;;9.83;6.50;;;-3.00;98.10;;;;;;5028416;28;20726;-73
2024/01/10 05:33:10;;;;;;;12.70;7.00;;;-3.20;98.00;;;;;;5031696;28;20648;-74
2024/01/10 05:35:38;;;;;;;10.33;6.43;;;-3.00;98.20;;;;;;5033192;28;20429;-74
2024/01/10 05:38:03;;;;;;;10.20;6.60;;;-2.90;98.10;;;;;;5032935;28;20474;-73
2024/01/10 05:40:32;;;;;;;13.30;7.93;;;-2.90;98.20;;;;;;5032956;28;20395;-73
2024/01/10 05:43:00;;;;;;;14.33;8.00;;;-3.10;98.10;;;;;;5032233;28;20189;-73
2024/01/10 05:45:26;;;;;;;9.80;6.90;;;-3.00;98.30;;;;;;5012678;28;20416;-73
2024/01/10 05:47:53;;;;;;;12.17;7.70;;;-2.90;98.30;;;;;;5028435;28;20454;-73
2024/01/10 05:50:19;;;;;;;12.13;6.70;;;-2.90;98.40;;;;;;5031537;28;20410;-73
2024/01/10 05:52:45;;;;;;;13.30;7.43;;;-3.00;98.30;;;;;;5010486;28;20448;-73
2024/01/10 05:55:11;;;;;;;13.43;7.60;;;-3.10;98.60;;;;;;5028572;28;20938;-73
2024/01/10 05:57:37;;;;;;;13.10;6.90;;;-3.00;98.40;;;;;;5015285;28;21539;-73
2024/01/10 06:00:04;;;;;;;10.00;7.73;;;-3.10;98.40;;;;;;5031565;28;20217;-74
2024/01/10 06:02:30;;;;;;;11.17;6.80;;;-3.00;98.30;;;;;;5032638;28;20425;-73
2024/01/10 06:04:56;;;;;;;17.73;7.90;;;-3.00;98.40;;;;;;5014147;28;20412;-73
2024/01/10 06:07:22;;;;;;;9.93;7.17;;;-2.90;98.40;;;;;;5032390;28;20917;-73
2024/01/10 06:09:47;;;;;;;9.50;5.90;;;-2.90;98.30;;;;;;5032436;28;20195;-72
2024/01/10 06:12:14;;;;;;;10.90;6.60;;;-2.90;98.30;;;;;;5016478;28;20791;-73
2024/01/10 06:14:40;;;;;;;10.93;6.80;;;-3.00;98.30;;;;;;5036865;28;21207;-73
2024/01/10 06:17:06;;;;;;;12.50;6.77;;;-2.90;98.10;;;;;;5036116;28;20422;-73
2024/01/10 06:19:31;;;;;;;13.57;7.17;;;-3.00;98.00;;;;;;5018962;28;20486;-73
2024/01/10 06:21:58;;;;;;;11.10;7.30;;;-2.90;98.00;;;;;;5036549;28;20433;-73
2024/01/10 06:24:23;;;;;;;12.93;7.70;;;-3.00;98.10;;;;;;5035130;28;20201;-73
2024/01/10 06:26:49;;;;;;;10.60;7.07;;;-2.90;98.30;;;;;;5037032;28;20403;-73
2024/01/10 06:29:15;;;;;;;11.10;7.53;;;-2.80;98.30;;;;;;5035439;28;20863;-73
2024/01/10 06:31:41;;;;;;;10.27;7.80;;;-2.90;98.40;;;;;;5035223;28;20205;-74
2024/01/10 06:34:08;;;;;;;15.60;7.77;;;-2.80;98.30;;;;;;5035475;28;20439;-73
2024/01/10 06:36:34;;;;;;;10.80;7.13;;;-3.10;98.10;;;;;;5034321;28;20268;-73
2024/01/10 06:39:00;;;;;;;10.83;6.60;;;-3.00;98.10;;;;;;5034636;28;20481;-72
2024/01/10 06:41:25;;;;;;;12.53;8.10;;;-3.10;98.10;;;;;;5035488;28;20400;-73
2024/01/10 06:43:54;;;;;;;13.83;7.97;;;-3.00;98.20;;;;;;5036104;28;20451;-73
2024/01/10 06:46:21;;;;;;;12.83;7.53;;;-3.00;98.20;;;;;;5034986;28;20236;-73
2024/01/10 06:48:47;;;;;;;12.17;7.83;;;-3.00;98.10;;;;;;5036521;28;21025;-73
2024/01/10 06:51:13;;;;;;;12.87;7.43;;;-3.10;98.10;;;;;;5034982;28;20440;-73
2024/01/10 06:53:40;;;;;;;16.53;8.47;;;-2.90;98.30;;;;;;5035024;28;21001;-74
2024/01/10 06:56:06;;;;;;;12.70;8.00;;;-3.10;98.10;;;;;;5033982;28;20780;-73
2024/01/10 06:58:33;;;;;;;15.33;9.07;;;-2.80;98.30;;;;;;5018145;28;20463;-73
2024/01/10 07:01:04;;;;;;;14.53;8.50;;;-3.10;98.30;;;;;;5034098;28;20782;-73
2024/01/10 07:03:30;;;;;;;11.37;7.57;;;-3.00;98.40;;;;;;5035605;28;20403;-73
2024/01/10 07:05:57;;;;;;;14.13;7.60;;;-3.00;98.30;;;;;;5035118;28;20436;-73
2024/01/10 07:08:22;;;;;;;13.30;8.27;;;-3.10;98.30;;;;;;5031417;28;20824;-73
2024/01/10 07:10:48;;;;;;;13.77;7.97;;;-3.00;98.50;;;;;;5012393;28;20432;-73
2024/01/10 07:13:14;;;;;;;13.67;7.70;;;-3.10;98.50;;;;;;5012433;28;20190;-74
2024/01/10 07:15:39;;;;;;;12.57;7.70;;;-3.10;98.60;;;;;;5031463;28;20625;-71
2024/01/10 07:18:06;;;;;;;13.33;8.20;;;-3.10;98.60;;;;;;5033350;28;20217;-71
2024/01/10 07:20:32;;;;;;;16.77;7.90;;;-3.20;98.70;;;;;;5033707;28;20660;-72
2024/01/10 07:22:59;;;;;;;15.03;9.00;;;-3.10;98.90;;;;;;5033648;28;20917;-72
2024/01/10 07:25:25;;;;;;;12.30;7.97;;;-3.20;99.00;;;;;;5032700;28;20427;-71
2024/01/10 07:27:54;;;;;;;15.83;9.83;;;-3.00;99.00;;;;;;5016726;28;20402;-72
2024/01/10 07:30:19;;;;;;;13.77;8.33;;;-2.90;98.90;;;;;;5033978;28;20420;-72
2024/01/10 07:32:46;;;;;;;13.27;8.10;;;-3.20;98.70;;;;;;5033217;28;20421;-73
2024/01/10 07:35:13;;;;;;;14.83;9.60;;;-3.10;98.80;;;;;;5031930;28;20241;-71
2024/01/10 07:37:43;;;;;;;16.57;8.63;;;-2.90;99.00;;;;;;5029897;28;20478;-72
2024/01/10 07:40:10;;;;;;;13.63;8.20;;;-3.00;99.00;;;;;;5032481;28;20477;-73
2024/01/10 07:42:36;;;;;;;17.07;9.10;;;-3.20;99.10;;;;;;5034276;28;20437;-71
2024/01/10 07:45:07;;;;;;;14.50;8.70;;;-3.00;99.20;;;;;;5031276;28;20430;-70
2024/01/10 07:47:34;;;;;;;14.80;9.63;;;-3.20;99.20;;;;;;4986594;28;20916;-71
2024/01/10 07:49:59;;;;;;;14.80;8.20;;;-3.10;99.30;;;;;;5009067;28;20411;-71
2024/01/10 07:52:26;;;;;;;16.70;8.83;;;-3.20;99.20;;;;;;5029320;28;20835;-73
2024/01/10 07:54:51;;;;;;;15.30;8.40;;;-3.00;99.20;;;;;;5030747;28;20182;-70
2024/01/10 07:57:19;;;;;;;16.50;8.40;;;-3.10;99.20;;;;;;5033610;28;20946;-73
2024/01/10 07:59:47;;;;;;;18.77;10.43;;;-3.00;99.40;;;;;;5032527;28;20188;-72
2024/01/10 08:02:13;;;;;;;19.07;10.43;;;-2.90;99.30;;;;;;5033715;28;20429;-72
2024/01/10 08:04:38;;;;;;;15.23;8.70;;;-3.00;99.10;;;;;;5031994;28;20502;-73
2024/01/10 08:07:04;;;;;;;15.80;8.67;;;-2.90;99.20;;;;;;5032033;28;20178;-71
2024/01/10 08:09:30;;;;;;;18.27;9.30;;;-3.10;99.10;;;;;;5033404;28;20671;-73
2024/01/10 08:11:55;;;;;;;14.80;9.10;;;-2.90;99.20;;;;;;5032555;28;20260;-71
2024/01/10 08:14:21;;;;;;;19.17;9.40;;;-3.00;99.20;;;;;;5033255;28;20231;-73
2024/01/10 08:16:47;;;;;;;13.77;8.70;;;-2.90;99.20;;;;;;5032223;28;20197;-73
2024/01/10 08:19:12;;;;;;;15.23;9.07;;;-2.80;99.20;;;;;;5033152;28;20216;-71
2024/01/10 08:21:38;;;;;;;18.00;9.03;;;-3.00;99.20;;;;;;5032854;28;20209;-72
2024/01/10 08:24:05;;;;;;;13.30;8.70;;;-2.80;99.20;;;;;;5033015;28;20734;-72
2024/01/10 08:26:31;;;;;;;12.03;8.10;;;-2.70;99.10;;;;;;5032675;28;20196;-71
2024/01/10 08:28:57;;;;;;;12.93;9.20;;;-2.80;99.00;;;;;;5014995;28;20437;-71
2024/01/10 08:31:23;;;;;;;18.10;9.87;;;-2.90;99.00;;;;;;5033541;28;20983;-73
2024/01/10 08:33:49;;;;;;;17.40;9.50;;;-2.50;99.20;;;;;;5031022;28;20399;-72
2024/01/10 08:36:15;;;;;;;14.03;9.43;;;-2.70;99.00;;;;;;5032270;28;20400;-71
2024/01/10 08:38:41;;;;;;;19.83;10.40;;;-2.50;98.90;;;;;;5032815;28;20468;-72
2024/01/10 08:41:13;;;;;;;16.83;9.77;;;-2.50;98.90;;;;;;5014639;28;20452;-73
2024/01/10 08:43:38;;;;;;;16.77;9.93;;;-2.40;98.90;;;;;;5016670;28;20733;-72
2024/01/10 08:46:04;;;;;;;18.20;10.60;;;-2.10;98.50;;;;;;5032459;28;20433;-73
2024/01/10 08:48:30;;;;;;;18.27;10.13;;;-2.10;98.30;;;;;;5032042;28;20440;-73
2024/01/10 08:50:56;;;;;;;15.87;10.30;;;-1.90;98.10;;;;;;5013518;28;20640;-71
2024/01/10 08:53:22;;;;;;;20.93;11.33;;;-1.50;97.90;;;;;;5033066;28;20182;-73
2024/01/10 08:55:48;;;;;;;20.17;11.87;;;-1.50;97.10;;;;;;5031552;28;20968;-73
2024/01/10 08:58:14;;;;;;;16.97;10.80;;;-1.30;97.20;;;;;;5032670;28;21013;-73
2024/01/10 09:00:40;;;;;;;22.50;11.77;;;-1.10;96.80;;;;;;5014261;28;20415;-71
2024/01/10 09:03:05;;;;;;;22.20;12.33;;;-1.30;96.30;;;;;;5014387;28;20411;-73
2024/01/10 09:05:31;;;;;;;18.30;11.10;;;-1.00;96.30;;;;;;5032367;28;20178;-72
2024/01/10 09:07:57;;;;;;;19.40;11.50;;;-0.90;96.20;;;;;;5031749;28;20864;-72
2024/01/10 09:10:23;;;;;;;17.17;11.50;;;-0.70;96.00;;;;;;5032732;28;20311;-74
2024/01/10 09:12:49;;;;;;;19.10;12.07;;;-0.60;95.90;;;;;;5031388;28;20186;-71
2024/01/10 09:15:15;;;;;;;19.40;11.97;;;-0.60;95.60;;;;;;5032616;28;20425;-70
2024/01/10 09:17:42;;;;;;;20.27;11.50;;;-0.40;95.60;;;;;;5031522;28;20479;-70
2024/01/10 09:20:08;;;;;;;20.30;12.47;;;-0.30;95.30;;;;;;5031169;28;20425;-70
2024/01/10 09:22:34;;;;;;;18.53;11.80;;;-0.30;94.70;;;;;;5032757;28;20530;-73
2024/01/10 09:25:05;;;;;;;23.07;11.90;;;-0.20;94.80;;;;;;5030482;28;21030;-72
2024/01/10 09:27:31;;;;;;;23.40;12.67;;;-0.10;94.50;;;;;;5031440;28;20428;-74
2024/01/10 09:29:57;;;;;;;20.23;11.90;;;0.00;94.40;;;;;;5031772;28;20446;-73
2024/01/10 09:32:23;;;;;;;19.40;12.13;;;0.20;94.30;;;;;;5031959;28;20432;-72
2024/01/10 09:34:48;;;;;;;19.17;11.53;;;0.20;94.00;;;;;;5031815;28;20257;-74
2024/01/10 09:37:14;;;;;;;19.40;12.43;;;0.40;93.70;;;;;;5032021;28;20184;-71
2024/01/10 09:39:40;;;;;;;25.50;12.37;;;0.50;93.60;;;;;;5031033;28;20181;-73
2024/01/10 09:42:06;;;;;;;17.03;11.60;;;0.60;93.70;;;;;;5031347;28;20652;-72
2024/01/10 09:44:33;;;;;;;20.63;12.53;;;0.70;93.50;;;;;;5030976;28;20417;-72
2024/01/10 09:47:00;;;;;;;21.63;13.13;;;0.80;93.40;;;;;;5030627;28;20218;-72
2024/01/10 09:49:27;;;;;;;24.60;12.83;;;1.00;92.90;;;;;;5032108;28;20425;-74
2024/01/10 09:52:01;;;;;;;23.40;13.10;;;1.10;92.90;;;;;;5030967;28;20407;-74
2024/01/10 09:54:30;;;;;;;20.83;13.30;;;1.20;92.60;;;;;;5031536;28;20411;-72
2024/01/10 09:56:57;;;;;;;20.20;12.60;;;1.30;92.40;;;;;;5031239;28;20433;-71
2024/01/10 09:59:23;;;;;;;21.00;13.63;;;1.40;92.10;;;;;;5031031;28;20771;-71
2024/01/10 10:01:51;;;;;;;23.00;14.13;;;1.50;92.10;;;;;;5031012;28;20491;-72
2024/01/10 10:04:19;;;;;;;17.90;12.67;;;1.60;92.20;;;;;;5028942;28;20425;-73
2024/01/10 10:06:45;;;;;;;20.83;13.23;;;1.80;91.80;;;;;;5030972;28;20722;-73
2024/01/10 10:09:12;;;;;;;20.00;13.53;;;1.90;91.60;;;;;;5030920;28;20747;-72
2024/01/10 10:11:38;;;;;;;19.73;13.57;;;2.00;91.10;;;;;;5031132;28;20429;-72
2024/01/10 10:14:18;;;;;;;20.17;14.07;;;2.20;91.50;;;;;;5030887;28;20435;-71
2024/01/10 10:16:44;;;;;;;24.43;14.60;;;2.40;90.90;;;;;;5030333;28;20226;-73
2024/01/10 10:19:12;;;;;;;25.60;14.07;;;2.60;90.30;;;;;;5031559;28;20780;-71
2024/01/10 10:21:38;;;;;;;19.97;13.90;;;2.80;90.10;;;;;;5030056;28;20563;-73
2024/01/10 10:24:05;;;;;;;24.33;15.00;;;3.00;90.10;;;;;;5030723;28;20428;-73
2024/01/10 10:26:34;;;;;;;20.37;14.00;;;3.10;90.10;;;;;;5012409;28;20435;-71
2024/01/10 10:29:01;;;;;;;24.10;15.13;;;3.40;87.80;;;;;;5031512;28;20420;-71
2024/01/10 10:31:26;;;;;;;22.30;15.10;;;3.60;87.60;;;;;;5030429;28;20517;-72
2024/01/10 10:33:52;;;;;;;20.10;15.10;;;3.90;85.80;;;;;;5030833;28;20520;-71
2024/01/10 10:36:21;;;;;;;24.20;16.23;;;3.90;83.50;;;;;;5013659;28;20433;-72
2024/01/10 10:38:51;;;;;;;25.23;16.70;;;3.80;80.60;;;;;;5030445;28;20823;-73
2024/01/10 10:41:18;;;;;;;20.33;14.83;;;3.60;79.70;;;;;;5030884;28;20516;-73
2024/01/10 10:43:44;;;;;;;22.67;15.63;;;3.30;79.40;;;;;;5013510;28;20428;-73
2024/01/10 10:46:12;;;;;;;21.83;15.10;;;3.00;79.80;;;;;;5031989;28;20962;-72
2024/01/10 10:48:38;;;;;;;22.20;16.20;;;2.70;80.90;;;;;;5031333;28;20192;-73
2024/01/10 10:51:26;;;;;;;23.97;15.00;;;2.60;81.80;;;;;;5032300;28;20434;-71
2024/01/10 10:53:52;;;;;;;21.60;14.67;;;2.60;83.40;;;;;;5031986;28;20427;-71
2024/01/10 10:56:18;;;;;;;21.50;15.77;;;2.70;84.60;;;;;;5013985;28;20884;-73
2024/01/10 10:58:44;;;;;;;22.70;14.27;;;2.70;83.60;;;;;;5035894;28;20551;-71
2024/01/10 11:01:14;;;;;;;25.03;15.20;;;2.90;84.80;;;;;;5017345;28;20193;-71
2024/01/10 11:03:42;;;;;;;23.13;16.17;;;3.00;83.60;;;;;;5034217;28;20923;-72
2024/01/10 11:06:08;;;;;;;20.57;14.53;;;3.00;82.40;;;;;;5034985;28;20985;-73
2024/01/10 11:08:56;;;;;;;23.30;15.20;;;2.90;82.30;;;;;;5035385;28;20436;-71
2024/01/10 11:11:28;;;;;;;22.13;16.03;;;2.90;81.80;;;;;;5015873;28;20456;-70
2024/01/10 11:14:16;;;;;;;23.00;15.70;;;2.80;82.60;;;;;;5035944;28;20471;-73
2024/01/10 11:17:09;;;;;;;25.23;14.90;;;2.60;81.90;;;;;;5035119;28;21041;-72
2024/01/10 11:20:01;;;;;;;22.27;16.00;;;2.50;82.00;;;;;;5016990;28;20578;-72
2024/01/10 11:22:39;;;;;;;23.13;14.77;;;2.30;82.40;;;;;;5034499;28;20486;-72
2024/01/10 11:25:05;;;;;;;22.00;15.00;;;2.20;82.80;;;;;;5035272;28;20424;-71
2024/01/10 11:27:31;;;;;;;21.83;14.13;;;2.00;83.30;;;;;;5033836;28;20412;-72
2024/01/10 11:29:58;;;;;;;23.53;14.97;;;1.90;84.30;;;;;;5035717;28;20436;-72
2024/01/10 11:32:24;;;;;;;23.70;15.53;;;1.80;84.50;;;;;;5035139;28;20173;-71
2024/01/10 11:34:58;;;;;;;24.40;15.20;;;1.80;85.00;;;;;;5035049;28;20522;-72
2024/01/10 11:37:50;;;;;;;21.40;15.20;;;1.80;85.90;;;;;;5016615;28;20197;-71
2024/01/10 11:40:44;;;;;;;20.77;14.17;;;2.10;87.60;;;;;;5034280;28;20872;-72
2024/01/10 11:43:13;;;;;;;20.93;14.13;;;2.50;85.60;;;;;;5034887;28;20429;-72
2024/01/10 11:45:49;;;;;;;25.03;14.87;;;2.60;83.90;;;;;;5033903;28;20886;-73
2024/01/10 11:48:15;;;;;;;24.43;15.57;;;2.60;83.00;;;;;;5034927;28;20521;-71
2024/01/10 11:50:42;;;;;;;24.17;15.80;;;2.50;83.20;;;;;;5033499;28;20522;-73
2024/01/10 11:53:08;;;;;;;27.07;16.60;;;2.50;83.70;;;;;;5033542;28;20452;-72
2024/01/10 11:55:53;;;;;;;23.93;16.20;;;2.50;84.80;;;;;;5032857;28;20934;-72
2024/01/10 11:58:19;;;;;;;22.23;14.77;;;2.70;86.80;;;;;;5032286;28;20268;-72
2024/01/10 12:00:47;;;;;;;22.20;14.93;;;3.30;86.90;;;;;;5033580;28;20477;-71
2024/01/10 12:03:14;;;;;;;25.53;15.40;;;4.90;88.50;;;;;;5031738;28;20629;-72
2024/01/10 12:05:40;;;;;;;20.50;15.67;;;7.50;80.20;;;;;;5032800;28;20421;-72
2024/01/10 12:08:09;;;;;;;20.60;15.80;;;10.20;65.60;;;;;;5014683;28;20513;-72
2024/01/10 12:10:38;;;;;;;24.50;17.00;;;12.60;55.10;;;;;;5033105;28;20930;-73
2024/01/10 12:13:04;;;;;;;23.83;18.07;;;14.30;49.00;;;;;;5033715;28;20433;-72
2024/01/10 12:15:29;;;;;;;24.90;17.70;;;15.70;44.50;;;;;;5033772;28;20938;-73
2024/01/10 12:17:55;;;;;;;26.23;18.83;;;16.60;40.90;;;;;;5034968;28;20563;-71
2024/01/10 12:20:21;;;;;;;21.70;17.80;;;17.40;38.10;;;;;;5033743;28;20626;-73
2024/01/10 12:22:47;;;;;;;22.53;17.90;;;18.00;36.40;;;;;;5034320;28;20480;-72
2024/01/10 12:25:13;;;;;;;22.93;19.00;;;18.30;34.00;;;;;;5033071;28;20182;-72
2024/01/10 12:27:39;;;;;;;22.80;19.07;;;17.30;32.20;;;;;;5033955;28;20425;-73
2024/01/10 12:30:06;;;;;;;24.87;19.20;;;14.90;31.70;;;;;;5033915;28;20474;-71
2024/01/10 12:32:32;;;;;;;25.53;18.60;;;12.60;33.30;;;;;;5032415;28;20788;-73
2024/01/10 12:35:01;;;;;;;27.30;18.63;;;10.40;35.00;;;;;;5034139;28;20512;-73
2024/01/10 12:37:27;;;;;;;18.97;16.70;;;8.70;37.80;;;;;;5033207;28;20529;-72